createdAt,value
2023-03-13T00:00:24.503Z,16.92
2023-03-13T00:01:33.110Z,16.13
2023-03-13T00:02:35.489Z,16.38
2023-03-13T00:03:37.814Z,16.48
2023-03-13T00:04:40.262Z,16.30
2023-03-13T00:05:42.720Z,16.98
2023-03-13T00:06:45.209Z,15.90
2023-03-13T00:07:47.598Z,17.03
2023-03-13T00:08:49.967Z,16.10
2023-03-13T00:09:52.348Z,15.77
2023-03-13T00:10:54.726Z,16.03
2023-03-13T00:11:57.140Z,15.90
2023-03-13T00:12:59.478Z,16.37
2023-03-13T00:14:03.425Z,16.85
2023-03-13T00:15:06.234Z,17.02
2023-03-13T00:16:14.386Z,16.78
2023-03-13T00:17:16.798Z,16.22
2023-03-13T00:18:19.185Z,16.18
2023-03-13T00:19:21.562Z,17.25
2023-03-13T00:20:23.973Z,17.48
2023-03-13T00:21:28.370Z,17.13
2023-03-13T00:22:30.701Z,17.00
2023-03-13T00:23:33.817Z,17.90
2023-03-13T00:24:36.249Z,17.17
2023-03-13T00:25:38.594Z,18.88
2023-03-13T00:26:41.090Z,18.50
2023-03-13T00:27:43.601Z,18.42
2023-03-13T00:28:46.367Z,18.40
2023-03-13T00:29:49.283Z,19.60
2023-03-13T00:30:51.709Z,19.27
2023-03-13T00:31:54.136Z,19.57
2023-03-13T00:32:56.636Z,18.05
2023-03-13T00:34:01.188Z,18.12
2023-03-13T00:35:03.681Z,17.62
2023-03-13T00:36:09.373Z,17.22
2023-03-13T00:37:11.756Z,16.42
2023-03-13T00:38:14.082Z,16.53
2023-03-13T00:39:16.411Z,16.88
2023-03-13T00:40:20.334Z,16.57
2023-03-13T00:41:28.393Z,16.60
2023-03-13T00:42:30.738Z,16.18
2023-03-13T00:43:35.489Z,16.52
2023-03-13T00:44:37.941Z,17.33
2023-03-13T00:45:40.270Z,16.83
2023-03-13T00:46:42.624Z,16.20
2023-03-13T00:47:44.980Z,15.93
2023-03-13T00:48:47.754Z,15.78
2023-03-13T00:49:50.361Z,16.23
2023-03-13T00:50:53.177Z,16.12
2023-03-13T00:51:55.497Z,16.00
2023-03-13T00:52:57.854Z,15.18
2023-03-13T00:54:01.060Z,15.57
2023-03-13T00:55:04.304Z,15.20
2023-03-13T00:56:14.740Z,16.33
2023-03-13T00:57:17.121Z,15.40
2023-03-13T00:58:19.846Z,15.68
2023-03-13T00:59:22.179Z,15.95
2023-03-13T01:00:24.542Z,15.52
2023-03-13T01:01:29.624Z,16.60
2023-03-13T01:02:32.125Z,16.22
2023-03-13T01:03:35.773Z,15.72
2023-03-13T01:04:38.160Z,16.07
2023-03-13T01:05:40.587Z,15.70
2023-03-13T01:06:43.420Z,15.77
2023-03-13T01:07:45.802Z,14.73
2023-03-13T01:08:48.397Z,15.33
2023-03-13T01:09:50.746Z,15.88
2023-03-13T01:11:00.722Z,16.02
2023-03-13T01:12:03.194Z,15.35
2023-03-13T01:13:06.856Z,15.90
2023-03-13T01:14:20.705Z,16.52
2023-03-13T01:15:24.200Z,15.88
2023-03-13T01:16:28.253Z,16.77
2023-03-13T01:17:30.822Z,15.78
2023-03-13T01:18:37.414Z,16.58
2023-03-13T01:19:39.808Z,16.47
2023-03-13T01:20:42.256Z,15.77
2023-03-13T01:21:45.923Z,16.13
2023-03-13T01:22:48.299Z,15.98
2023-03-13T01:23:51.596Z,15.47
2023-03-13T01:24:54.274Z,15.92
2023-03-13T01:25:57.090Z,15.80
2023-03-13T01:26:59.427Z,15.92
2023-03-13T01:28:01.803Z,17.03
2023-03-13T01:29:04.475Z,16.52
2023-03-13T01:30:07.501Z,15.38
2023-03-13T01:31:23.717Z,16.17
2023-03-13T01:32:26.222Z,16.65
2023-03-13T01:33:28.645Z,16.15
2023-03-13T01:34:30.998Z,15.88
2023-03-13T01:35:33.475Z,15.93
2023-03-13T01:36:37.492Z,16.02
2023-03-13T01:37:39.877Z,16.28
2023-03-13T01:38:42.644Z,15.62
2023-03-13T01:39:44.997Z,16.72
2023-03-13T01:40:49.196Z,16.32
2023-03-13T01:41:51.576Z,16.32
2023-03-13T01:42:56.537Z,16.35
2023-03-13T01:43:59.923Z,16.40
2023-03-13T01:45:02.266Z,15.45
2023-03-13T01:46:08.335Z,15.73
2023-03-13T01:47:10.717Z,16.52
2023-03-13T01:48:13.074Z,16.10
2023-03-13T01:49:20.165Z,15.90
2023-03-13T01:50:22.629Z,16.73
2023-03-13T01:51:34.253Z,15.53
2023-03-13T01:52:36.665Z,16.68
2023-03-13T01:53:42.935Z,16.18
2023-03-13T01:54:51.740Z,15.78
2023-03-13T01:55:55.267Z,15.43
2023-03-13T01:57:05.399Z,15.02
2023-03-13T01:58:08.367Z,16.13
2023-03-13T01:59:15.362Z,15.65
2023-03-13T02:01:23.743Z,15.17
2023-03-13T02:02:27.006Z,15.72
2023-03-13T02:03:29.815Z,14.92
2023-03-13T02:04:37.016Z,15.53
2023-03-13T02:05:41.124Z,15.38
2023-03-13T02:06:48.257Z,14.75
2023-03-13T02:08:10.997Z,14.30
2023-03-13T02:09:19.153Z,14.32
2023-03-13T02:10:23.371Z,15.05
2023-03-13T02:11:32.220Z,14.32
2023-03-13T02:12:37.366Z,14.15
2023-03-13T02:13:41.016Z,14.52
2023-03-13T02:14:45.775Z,13.88
2023-03-13T02:15:49.462Z,14.15
2023-03-13T02:17:02.678Z,14.37
2023-03-13T02:18:05.079Z,13.88
2023-03-13T02:19:19.968Z,14.40
2023-03-13T02:20:23.330Z,14.15
2023-03-13T02:21:47.119Z,13.93
2023-03-13T02:22:52.411Z,13.28
2023-03-13T02:24:05.212Z,13.30
2023-03-13T02:25:25.872Z,12.93
2023-03-13T02:26:28.393Z,13.72
2023-03-13T02:27:31.100Z,13.57
2023-03-13T02:28:36.282Z,13.27
2023-03-13T02:29:38.666Z,13.45
2023-03-13T02:30:43.716Z,13.35
2023-03-13T02:31:47.603Z,13.43
2023-03-13T02:32:50.771Z,13.23
2023-03-13T02:33:55.974Z,13.65
2023-03-13T02:35:03.984Z,13.82
2023-03-13T02:36:07.623Z,13.68
2023-03-13T02:37:11.109Z,13.90
2023-03-13T02:38:19.297Z,13.63
2023-03-13T02:39:24.271Z,13.35
2023-03-13T02:40:30.530Z,14.13
2023-03-13T02:41:34.802Z,13.33
2023-03-13T02:42:39.555Z,12.88
2023-03-13T02:43:41.970Z,13.02
2023-03-13T02:44:46.820Z,13.88
2023-03-13T02:46:21.464Z,14.27
2023-03-13T02:47:25.777Z,14.00
2023-03-13T02:48:34.400Z,13.12
2023-03-13T02:49:37.178Z,13.95
2023-03-13T02:50:39.529Z,13.68
2023-03-13T02:51:45.327Z,13.73
2023-03-13T02:53:00.860Z,13.47
2023-03-13T02:54:11.355Z,13.40
2023-03-13T02:55:22.674Z,13.62
2023-03-13T02:56:26.515Z,13.62
2023-03-13T02:57:29.397Z,13.75
2023-03-13T02:58:49.883Z,13.15
2023-03-13T02:59:53.020Z,14.00
2023-03-13T03:00:55.780Z,14.32
2023-03-13T03:01:58.216Z,13.90
2023-03-13T03:03:00.609Z,13.82
2023-03-13T03:04:03.040Z,14.48
2023-03-13T03:05:06.216Z,14.27
2023-03-13T03:06:08.740Z,13.87
2023-03-13T03:07:11.329Z,13.28
2023-03-13T03:08:13.722Z,13.18
2023-03-13T03:09:17.051Z,12.57
2023-03-13T03:10:19.543Z,12.18
2023-03-13T03:11:21.939Z,13.07
2023-03-13T03:12:24.367Z,12.82
2023-03-13T03:13:27.393Z,12.83
2023-03-13T03:14:29.873Z,12.53
2023-03-13T03:15:32.273Z,12.98
2023-03-13T03:16:34.685Z,12.50
2023-03-13T03:17:37.176Z,13.23
2023-03-13T03:18:39.623Z,12.33
2023-03-13T03:19:42.046Z,11.92
2023-03-13T03:20:44.427Z,12.28
2023-03-13T03:21:46.913Z,13.58
2023-03-13T03:22:49.252Z,13.02
2023-03-13T03:23:51.720Z,12.22
2023-03-13T03:24:54.078Z,13.03
2023-03-13T03:25:56.424Z,12.88
2023-03-13T03:26:58.849Z,12.48
2023-03-13T03:28:42.691Z,12.85
2023-03-13T03:29:45.149Z,12.68
2023-03-13T03:30:47.616Z,12.92
2023-03-13T03:31:50.089Z,12.13
2023-03-13T03:32:55.525Z,11.78
2023-03-13T03:33:57.950Z,12.17
2023-03-13T03:35:00.342Z,12.88
2023-03-13T03:36:05.822Z,12.27
2023-03-13T03:37:08.317Z,12.85
2023-03-13T03:38:10.666Z,12.18
2023-03-13T03:39:13.086Z,12.03
2023-03-13T03:40:15.586Z,12.17
2023-03-13T03:41:19.316Z,11.87
2023-03-13T03:42:21.769Z,11.48
2023-03-13T03:43:24.340Z,12.00
2023-03-13T03:44:26.764Z,12.07
2023-03-13T03:45:29.198Z,12.40
2023-03-13T03:46:31.699Z,11.77
2023-03-13T03:47:34.167Z,11.63
2023-03-13T03:48:37.762Z,12.18
2023-03-13T03:49:40.577Z,12.05
2023-03-13T03:50:43.261Z,11.80
2023-03-13T03:51:47.457Z,11.45
2023-03-13T03:52:51.464Z,11.95
2023-03-13T03:53:55.015Z,11.33
2023-03-13T03:55:02.810Z,10.93
2023-03-13T03:56:06.104Z,11.50
2023-03-13T03:57:08.627Z,11.07
2023-03-13T03:58:36.386Z,11.68
2023-03-13T03:59:41.318Z,11.98
2023-03-13T04:00:46.228Z,11.95
2023-03-13T04:01:48.691Z,11.62
2023-03-13T04:02:51.164Z,11.23
2023-03-13T04:03:53.525Z,11.43
2023-03-13T04:04:55.925Z,11.27
2023-03-13T04:05:58.468Z,11.27
2023-03-13T04:07:00.963Z,11.53
2023-03-13T04:08:03.385Z,11.22
2023-03-13T04:09:05.825Z,11.42
2023-03-13T04:10:08.855Z,11.63
2023-03-13T04:11:11.219Z,11.42
2023-03-13T04:12:15.054Z,11.35
2023-03-13T04:13:17.528Z,12.03
2023-03-13T04:14:19.926Z,11.27
2023-03-13T04:15:23.170Z,12.20
2023-03-13T04:16:25.615Z,11.90
2023-03-13T04:17:28.104Z,12.27
2023-03-13T04:18:30.529Z,12.37
2023-03-13T04:19:34.206Z,11.18
2023-03-13T04:20:37.732Z,11.20
2023-03-13T04:21:40.116Z,11.98
2023-03-13T04:22:42.926Z,12.10
2023-03-13T04:23:45.313Z,12.08
2023-03-13T04:24:54.191Z,12.92
2023-03-13T04:25:56.555Z,12.75
2023-03-13T04:26:59.042Z,12.83
2023-03-13T04:28:01.480Z,12.27
2023-03-13T04:29:06.436Z,12.73
2023-03-13T04:30:10.793Z,13.32
2023-03-13T04:31:13.187Z,12.82
2023-03-13T04:32:16.644Z,13.25
2023-03-13T04:33:19.062Z,14.03
2023-03-13T04:34:21.629Z,13.20
2023-03-13T04:35:24.073Z,12.73
2023-03-13T04:36:26.623Z,13.08
2023-03-13T04:37:37.884Z,13.58
2023-03-13T04:38:40.235Z,13.43
2023-03-13T04:39:45.742Z,13.27
2023-03-13T04:40:48.750Z,12.98
2023-03-13T04:41:52.758Z,12.73
2023-03-13T04:42:55.198Z,13.52
2023-03-13T04:43:57.589Z,14.07
2023-03-13T04:45:10.570Z,14.42
2023-03-13T04:46:13.066Z,14.22
2023-03-13T04:47:15.530Z,14.53
2023-03-13T04:48:17.993Z,14.50
2023-03-13T04:49:20.374Z,13.83
2023-03-13T04:50:22.817Z,13.88
2023-03-13T04:51:27.881Z,14.75
2023-03-13T04:52:31.336Z,14.47
2023-03-13T04:53:33.702Z,14.50
2023-03-13T04:54:36.094Z,13.90
2023-03-13T04:55:48.012Z,13.65
2023-03-13T04:56:50.407Z,13.62
2023-03-13T04:57:52.757Z,14.38
2023-03-13T04:58:55.305Z,14.67
2023-03-13T04:59:57.704Z,14.20
2023-03-13T05:01:00.259Z,13.98
2023-03-13T05:02:02.848Z,13.98
2023-03-13T05:03:06.297Z,14.35
2023-03-13T05:04:09.093Z,14.65
2023-03-13T05:05:11.689Z,15.15
2023-03-13T05:06:18.188Z,14.82
2023-03-13T05:07:20.579Z,15.23
2023-03-13T05:08:22.984Z,14.78
2023-03-13T05:09:25.565Z,14.68
2023-03-13T05:10:27.970Z,15.42
2023-03-13T05:11:30.445Z,15.10
2023-03-13T05:12:32.860Z,14.98
2023-03-13T05:13:37.541Z,13.83
2023-03-13T05:14:47.064Z,15.03
2023-03-13T05:15:52.504Z,14.42
2023-03-13T05:17:17.803Z,15.70
2023-03-13T05:18:20.296Z,15.05
2023-03-13T05:19:22.689Z,15.90
2023-03-13T05:20:25.063Z,14.67
2023-03-13T05:21:30.983Z,14.12
2023-03-13T05:22:34.672Z,13.68
2023-03-13T05:23:37.360Z,14.45
2023-03-13T05:24:41.966Z,14.97
2023-03-13T05:25:44.464Z,14.47
2023-03-13T05:26:46.875Z,13.98
2023-03-13T05:27:50.273Z,14.48
2023-03-13T05:28:52.883Z,14.92
2023-03-13T05:29:55.305Z,14.70
2023-03-13T05:31:03.224Z,15.10
2023-03-13T05:32:05.996Z,14.45
2023-03-13T05:33:10.381Z,14.27
2023-03-13T05:34:19.930Z,14.87
2023-03-13T05:36:57.340Z,15.07
2023-03-13T05:37:59.724Z,14.93
2023-03-13T05:39:03.184Z,14.45
2023-03-13T05:40:06.220Z,14.15
2023-03-13T05:41:08.594Z,15.27
2023-03-13T05:42:11.803Z,15.13
2023-03-13T05:43:14.208Z,15.10
2023-03-13T05:44:17.216Z,14.67
2023-03-13T05:45:20.971Z,14.28
2023-03-13T05:46:23.398Z,13.68
2023-03-13T05:47:26.118Z,15.05
2023-03-13T05:51:16.286Z,14.25
2023-03-13T05:52:18.691Z,14.12
2023-03-13T05:53:41.671Z,13.53
2023-03-13T05:54:44.096Z,14.63
2023-03-13T05:58:04.669Z,14.40
2023-03-13T05:59:09.177Z,14.78
2023-03-13T06:00:12.392Z,14.12
2023-03-13T06:03:56.203Z,13.85
2023-03-13T06:04:58.911Z,14.02
2023-03-13T06:06:01.359Z,14.33
2023-03-13T06:07:05.991Z,13.47
2023-03-13T06:08:08.622Z,14.28
2023-03-13T06:09:11.991Z,14.57
2023-03-13T06:13:01.435Z,14.25
2023-03-13T06:14:12.154Z,13.90
2023-03-13T06:15:14.538Z,14.12
2023-03-13T06:18:59.070Z,14.35
2023-03-13T06:20:06.264Z,14.82
2023-03-13T06:21:09.199Z,14.97
2023-03-13T06:24:49.246Z,15.22
2023-03-13T06:29:24.573Z,13.37
2023-03-13T06:30:27.276Z,13.63
2023-03-13T06:34:00.744Z,13.88
2023-03-13T06:39:51.670Z,14.62
2023-03-13T06:45:42.963Z,13.90
2023-03-13T06:46:45.739Z,14.68
2023-03-13T06:47:49.303Z,13.25
2023-03-13T06:48:52.314Z,13.63
2023-03-13T06:50:17.550Z,13.82
2023-03-13T06:51:24.450Z,13.30
2023-03-13T06:52:42.899Z,13.52
2023-03-13T06:53:49.128Z,13.30
2023-03-13T06:54:53.000Z,13.20
2023-03-13T06:56:02.138Z,13.52
2023-03-13T06:57:07.952Z,13.50
2023-03-13T06:58:28.736Z,13.75
2023-03-13T06:59:41.774Z,13.12
2023-03-13T07:00:46.985Z,13.13
2023-03-13T07:01:50.944Z,13.20
2023-03-13T07:02:57.551Z,13.05
2023-03-13T07:04:01.815Z,12.38
2023-03-13T07:05:06.166Z,12.80
2023-03-13T07:06:34.840Z,12.37
2023-03-13T07:07:37.562Z,12.67
2023-03-13T07:09:12.780Z,12.48
2023-03-13T07:10:15.545Z,12.93
2023-03-13T07:11:18.567Z,12.02
2023-03-13T07:12:41.683Z,12.47
2023-03-13T07:13:48.063Z,15.15
2023-03-13T07:15:29.053Z,19.42
2023-03-13T07:16:31.572Z,16.25
2023-03-13T07:17:34.570Z,13.93
2023-03-13T07:20:06.824Z,12.03
2023-03-13T07:21:15.571Z,12.72
2023-03-13T07:22:18.053Z,13.52
2023-03-13T07:23:27.808Z,12.37
2023-03-13T07:24:38.567Z,12.02
2023-03-13T07:25:41.128Z,12.03
2023-03-13T07:27:07.287Z,11.45
2023-03-13T07:28:38.154Z,11.88
2023-03-13T07:29:44.710Z,12.62
2023-03-13T07:30:47.368Z,11.58
2023-03-13T07:31:52.891Z,11.65
2023-03-13T07:33:04.179Z,12.47
2023-03-13T07:34:06.799Z,12.03
2023-03-13T07:36:42.443Z,11.38
2023-03-13T08:03:54.900Z,10.58
2023-03-13T08:05:00.709Z,10.55
2023-03-13T08:06:08.429Z,10.20
2023-03-13T08:07:11.681Z,10.52
2023-03-13T08:08:15.576Z,10.15
2023-03-13T08:11:54.734Z,10.52
2023-03-13T08:12:57.910Z,11.15
2023-03-13T08:14:00.498Z,10.65
2023-03-13T08:15:04.584Z,10.30
2023-03-13T08:17:37.348Z,10.33
2023-03-13T08:18:47.384Z,10.15
2023-03-13T08:19:53.597Z,9.80
2023-03-13T08:21:02.354Z,10.68
2023-03-13T08:22:04.852Z,10.53
2023-03-13T08:23:07.829Z,9.70
2023-03-13T08:26:54.580Z,9.48
2023-03-13T08:27:57.207Z,9.70
2023-03-13T08:29:03.482Z,9.68
2023-03-13T08:30:07.906Z,9.73
2023-03-13T08:31:13.119Z,9.10
2023-03-13T08:32:16.193Z,9.45
2023-03-13T08:35:57.605Z,9.83
2023-03-13T08:37:02.804Z,9.25
2023-03-13T08:38:11.303Z,8.98
2023-03-13T08:42:18.561Z,9.42
2023-03-13T08:43:22.661Z,12.02
2023-03-13T08:45:19.508Z,11.37
2023-03-13T08:49:10.124Z,10.75
2023-03-13T08:50:14.024Z,10.25
2023-03-13T08:55:39.566Z,9.57
2023-03-13T08:56:46.627Z,9.25
2023-03-13T08:57:56.475Z,9.22
2023-03-13T08:59:01.757Z,8.00
2023-03-13T09:00:16.970Z,7.95
2023-03-13T09:01:22.401Z,7.97
2023-03-13T09:04:46.101Z,8.33
2023-03-13T09:06:13.753Z,8.48
2023-03-13T09:07:17.045Z,7.98
2023-03-13T09:08:20.219Z,8.32
2023-03-13T09:09:31.475Z,8.32
2023-03-13T09:10:33.875Z,8.38
2023-03-13T09:11:37.452Z,8.40
2023-03-13T09:12:42.531Z,7.83
2023-03-13T09:13:49.587Z,7.17
2023-03-13T09:14:52.275Z,7.62
2023-03-13T09:16:09.760Z,7.77
2023-03-13T09:17:14.548Z,7.87
2023-03-13T09:18:21.131Z,8.20
2023-03-13T09:19:25.790Z,7.28
2023-03-13T09:20:35.937Z,7.37
2023-03-13T09:21:45.162Z,7.12
2023-03-13T09:22:55.903Z,7.25
2023-03-13T09:23:59.207Z,7.25
2023-03-13T09:25:01.725Z,6.98
2023-03-13T09:26:12.942Z,7.13
2023-03-13T09:27:19.302Z,6.98
2023-03-13T09:28:25.454Z,6.45
2023-03-13T09:31:50.292Z,6.78
2023-03-13T09:32:59.585Z,6.18
2023-03-13T09:34:04.614Z,6.37
2023-03-13T09:35:08.900Z,6.67
2023-03-13T09:36:18.772Z,6.43
2023-03-13T09:37:27.601Z,6.70
2023-03-13T09:38:34.628Z,6.47
2023-03-13T09:39:37.190Z,6.80
2023-03-13T09:43:39.507Z,6.32
2023-03-13T09:47:45.331Z,6.03
2023-03-13T09:48:59.686Z,5.17
2023-03-13T09:50:23.302Z,5.58
2023-03-13T09:51:32.142Z,5.87
2023-03-13T09:59:32.284Z,6.93
2023-03-13T10:04:45.050Z,6.38
2023-03-13T10:05:51.851Z,6.22
2023-03-13T10:33:32.730Z,6.50
2023-03-13T10:35:01.118Z,7.00
2023-03-13T10:46:50.900Z,6.12
2023-03-13T10:48:00.785Z,6.15
2023-03-13T10:49:22.257Z,6.38
2023-03-13T10:50:27.011Z,7.02
2023-03-13T10:52:01.133Z,6.58
2023-03-13T10:53:21.812Z,6.22
2023-03-13T10:54:43.270Z,6.20
2023-03-13T10:55:49.485Z,5.27
2023-03-13T10:57:09.779Z,5.23
2023-03-13T11:00:27.796Z,7.02
2023-03-13T11:01:53.422Z,6.45
2023-03-13T11:02:58.807Z,5.83
2023-03-13T11:07:51.393Z,6.50
2023-03-13T11:08:40.296Z,5.63
2023-03-13T11:11:54.442Z,6.23
2023-03-13T11:12:58.690Z,5.87
2023-03-13T11:14:15.051Z,5.78
2023-03-13T11:15:39.503Z,6.48
2023-03-13T11:16:47.681Z,6.68
2023-03-13T11:18:02.282Z,6.15
2023-03-13T11:19:42.630Z,6.30
2023-03-13T11:20:47.190Z,5.83
2023-03-13T11:21:58.658Z,5.57
2023-03-13T11:23:15.184Z,6.43
2023-03-13T11:24:29.165Z,7.48
2023-03-13T11:26:05.108Z,6.67
2023-03-13T11:27:44.074Z,6.33
2023-03-13T11:28:55.441Z,7.03
2023-03-13T11:30:23.390Z,6.22
2023-03-13T11:31:41.885Z,5.85
2023-03-13T11:32:53.510Z,5.18
2023-03-13T11:34:02.624Z,5.23
2023-03-13T11:35:20.897Z,5.62
2023-03-13T11:36:36.510Z,4.87
2023-03-13T11:37:41.932Z,5.13
2023-03-13T11:39:32.414Z,5.58
2023-03-13T11:41:04.794Z,6.05
2023-03-13T11:42:35.772Z,6.52
2023-03-13T11:44:10.135Z,6.72
2023-03-13T11:45:51.666Z,7.07
2023-03-13T11:47:03.027Z,6.70
2023-03-13T11:48:42.442Z,6.18
2023-03-13T11:49:44.967Z,7.20
2023-03-13T11:50:59.840Z,6.48
2023-03-13T11:52:06.210Z,6.23
2023-03-13T11:53:26.576Z,6.63
2023-03-13T11:54:56.624Z,7.05
2023-03-13T11:56:06.044Z,6.98
2023-03-13T11:57:22.158Z,7.42
2023-03-13T11:58:54.912Z,7.42
2023-03-13T12:00:16.484Z,6.97
2023-03-13T12:01:26.157Z,7.23
2023-03-13T12:02:36.111Z,7.78
2023-03-13T12:03:44.715Z,7.57
2023-03-13T12:04:55.831Z,7.55
2023-03-13T12:06:00.379Z,8.58
2023-03-13T12:07:04.656Z,9.08
2023-03-13T12:08:17.185Z,8.03
2023-03-13T12:09:48.470Z,8.30
2023-03-13T12:11:17.209Z,8.43
2023-03-13T12:12:23.888Z,7.98
2023-03-13T12:13:30.915Z,7.55
2023-03-13T12:14:50.419Z,7.87
2023-03-13T12:15:58.571Z,7.60
2023-03-13T12:17:07.848Z,8.13
2023-03-13T12:18:19.287Z,7.35
2023-03-13T12:19:34.028Z,7.80
2023-03-13T12:20:45.389Z,7.83
2023-03-13T12:21:50.929Z,7.70
2023-03-13T12:23:18.990Z,7.38
2023-03-13T12:24:32.981Z,7.27
2023-03-13T12:25:44.581Z,6.60
2023-03-13T12:27:13.800Z,6.57
2023-03-13T12:28:28.662Z,7.23
2023-03-13T12:29:37.090Z,7.08
2023-03-13T12:31:14.451Z,7.63
2023-03-13T12:32:29.907Z,7.63
2023-03-13T12:34:09.619Z,8.07
2023-03-13T12:35:22.700Z,7.78
2023-03-13T12:36:40.865Z,7.62
2023-03-13T12:37:54.475Z,7.77
2023-03-13T12:39:07.168Z,7.23
2023-03-13T12:40:29.629Z,6.48
2023-03-13T12:41:44.465Z,6.63
2023-03-13T12:43:14.139Z,6.97
2023-03-13T12:44:23.323Z,6.63
2023-03-13T12:45:26.635Z,6.20
2023-03-13T12:46:53.283Z,6.37
2023-03-13T12:48:20.744Z,6.53
2023-03-13T12:49:42.261Z,7.08
2023-03-13T12:50:59.734Z,6.63
2023-03-13T12:52:07.932Z,6.70
2023-03-13T12:53:32.155Z,6.35
2023-03-13T12:54:49.416Z,7.12
2023-03-13T12:55:56.444Z,6.53
2023-03-13T12:57:33.524Z,6.77
2023-03-13T12:59:04.662Z,6.15
2023-03-13T13:01:38.023Z,6.17
2023-03-13T13:02:41.404Z,6.10
2023-03-13T13:03:59.952Z,6.18
2023-03-13T13:05:04.124Z,6.73
2023-03-13T13:06:11.913Z,6.40
2023-03-13T13:07:30.161Z,6.50
2023-03-13T13:08:56.024Z,6.93
2023-03-13T13:10:09.018Z,6.85
2023-03-13T13:11:40.540Z,6.52
2023-03-13T13:12:48.834Z,7.08
2023-03-13T13:13:52.497Z,6.73
2023-03-13T13:15:00.649Z,6.32
2023-03-13T13:16:14.963Z,6.22
2023-03-13T13:19:59.032Z,5.87
2023-03-13T13:21:23.884Z,5.73
2023-03-13T13:22:40.801Z,5.75
2023-03-13T13:24:57.339Z,5.53
2023-03-13T13:28:17.029Z,5.05
2023-03-13T13:29:22.263Z,5.25
2023-03-13T13:30:28.024Z,5.10
2023-03-13T13:31:51.552Z,4.95
2023-03-13T13:32:55.791Z,5.15
2023-03-13T13:33:58.181Z,5.48
2023-03-13T13:35:06.784Z,5.33
2023-03-13T13:36:09.176Z,5.32
2023-03-13T13:37:23.450Z,5.28
2023-03-13T13:38:34.460Z,5.37
2023-03-13T13:39:50.043Z,5.28
2023-03-13T13:41:06.315Z,5.28
2023-03-13T13:42:33.430Z,4.50
2023-03-13T13:43:37.882Z,4.75
2023-03-13T13:44:57.336Z,5.37
2023-03-13T13:46:07.297Z,5.28
2023-03-13T13:47:24.131Z,5.03
2023-03-13T13:48:34.588Z,4.63
2023-03-13T13:49:38.217Z,5.05
2023-03-13T13:51:12.469Z,4.38
2023-03-13T13:52:20.369Z,4.18
2023-03-13T13:53:34.891Z,4.58
2023-03-13T13:54:45.455Z,4.58
2023-03-13T13:55:48.197Z,3.63
2023-03-13T13:56:59.710Z,3.92
2023-03-13T13:58:12.365Z,3.97
2023-03-13T13:59:20.425Z,3.95
2023-03-13T14:00:26.685Z,3.90
2023-03-13T14:01:29.554Z,3.85
2023-03-13T14:02:36.501Z,3.80
2023-03-13T14:03:42.443Z,3.70
2023-03-13T14:04:53.308Z,3.78
2023-03-13T14:06:02.970Z,4.37
2023-03-13T14:07:06.850Z,4.00
2023-03-13T14:08:30.770Z,3.93
2023-03-13T14:10:08.171Z,3.98
2023-03-13T14:11:34.352Z,3.97
2023-03-13T14:12:38.786Z,3.78
2023-03-13T14:13:42.078Z,3.48
2023-03-13T14:14:44.398Z,3.82
2023-03-13T14:15:53.597Z,3.70
2023-03-13T14:16:57.643Z,3.20
2023-03-13T14:18:27.168Z,3.17
2023-03-13T14:19:39.404Z,3.05
2023-03-13T14:21:01.336Z,3.00
2023-03-13T14:22:08.592Z,3.33
2023-03-13T14:23:13.113Z,3.38
2023-03-13T14:24:16.737Z,3.08
2023-03-13T14:25:19.904Z,3.02
2023-03-13T14:26:24.913Z,2.98
2023-03-13T14:27:27.306Z,2.70
2023-03-13T14:28:29.902Z,2.85
2023-03-13T14:29:32.332Z,2.88
2023-03-13T14:30:34.740Z,2.52
2023-03-13T14:31:39.237Z,2.63
2023-03-13T14:32:42.217Z,3.18
2023-03-13T14:33:44.691Z,3.17
2023-03-13T14:34:47.054Z,3.38
2023-03-13T14:35:49.682Z,3.37
2023-03-13T14:37:14.880Z,3.23
2023-03-13T14:38:27.410Z,2.95
2023-03-13T14:39:32.826Z,2.73
2023-03-13T14:40:38.183Z,2.75
2023-03-13T14:41:45.293Z,2.88
2023-03-13T14:42:56.646Z,3.27
2023-03-13T14:44:05.346Z,2.95
2023-03-13T14:45:24.745Z,2.98
2023-03-13T14:46:32.879Z,2.83
2023-03-13T14:47:35.557Z,5.85
2023-03-13T14:48:38.021Z,5.18
2023-03-13T14:49:40.651Z,4.03
2023-03-13T14:50:43.112Z,3.02
2023-03-13T14:51:48.357Z,2.70
2023-03-13T14:52:54.001Z,3.23
2023-03-13T14:53:59.010Z,3.05
2023-03-13T14:55:04.594Z,2.72
2023-03-13T14:56:11.787Z,2.65
2023-03-13T14:57:16.829Z,2.58
2023-03-13T14:58:28.748Z,3.30
2023-03-13T14:59:31.188Z,5.23
2023-03-13T15:00:39.520Z,4.88
2023-03-13T15:01:41.978Z,4.30
2023-03-13T15:02:44.383Z,2.97
2023-03-13T15:03:46.740Z,2.75
2023-03-13T15:05:03.860Z,2.82
2023-03-13T15:06:12.260Z,2.85
2023-03-13T15:07:14.740Z,2.68
2023-03-13T15:08:20.254Z,2.78
2023-03-13T15:09:30.716Z,2.80
2023-03-13T15:10:36.966Z,3.17
2023-03-13T15:11:57.522Z,2.85
2023-03-13T15:12:59.990Z,3.77
2023-03-13T15:14:02.446Z,4.95
2023-03-13T15:15:05.222Z,5.28
2023-03-13T15:16:16.626Z,5.45
2023-03-13T15:17:20.644Z,5.40
2023-03-13T15:18:33.377Z,4.42
2023-03-13T15:19:35.787Z,3.90
2023-03-13T15:20:38.273Z,3.67
2023-03-13T15:21:41.371Z,3.12
2023-03-13T15:22:46.213Z,3.15
2023-03-13T15:23:59.138Z,3.35
2023-03-13T15:25:07.714Z,3.77
2023-03-13T15:26:10.759Z,3.22
2023-03-13T15:27:24.251Z,3.52
2023-03-13T15:28:26.586Z,3.87
2023-03-13T15:29:29.013Z,3.25
2023-03-13T15:30:31.773Z,3.13
2023-03-13T15:31:34.575Z,4.18
2023-03-13T15:32:39.140Z,4.13
2023-03-13T15:33:43.129Z,3.30
2023-03-13T15:34:45.964Z,3.13
2023-03-13T15:35:49.868Z,3.62
2023-03-13T15:36:52.265Z,4.55
2023-03-13T15:37:55.928Z,4.65
2023-03-13T15:38:58.376Z,4.68
2023-03-13T15:40:07.792Z,5.55
2023-03-13T15:41:10.117Z,5.20
2023-03-13T15:42:12.470Z,5.37
2023-03-13T15:43:15.299Z,4.78
2023-03-13T15:44:17.712Z,4.57
2023-03-13T15:45:20.870Z,5.03
2023-03-13T15:46:30.593Z,4.22
2023-03-13T15:47:33.078Z,3.87
2023-03-13T15:48:36.534Z,4.05
2023-03-13T15:49:38.896Z,4.38
2023-03-13T15:50:41.993Z,4.28
2023-03-13T15:51:44.371Z,4.27
2023-03-13T15:52:46.810Z,4.48
2023-03-13T15:53:49.260Z,4.25
2023-03-13T15:54:52.230Z,4.38
2023-03-13T15:55:56.586Z,4.93
2023-03-13T15:57:03.401Z,5.62
2023-03-13T15:58:08.504Z,5.78
2023-03-13T15:59:12.620Z,6.23
2023-03-13T16:00:26.160Z,5.93
2023-03-13T16:01:28.873Z,4.30
2023-03-13T16:02:31.232Z,4.68
2023-03-13T16:03:33.612Z,4.53
2023-03-13T16:04:37.865Z,4.25
2023-03-13T16:05:40.319Z,4.37
2023-03-13T16:06:42.706Z,4.68
2023-03-13T16:07:45.063Z,4.45
2023-03-13T16:08:47.527Z,3.90
2023-03-13T16:09:50.540Z,4.40
2023-03-13T16:10:53.706Z,3.88
2023-03-13T16:11:56.120Z,4.42
2023-03-13T16:12:58.560Z,4.97
2023-03-13T16:14:01.106Z,4.82
2023-03-13T16:15:05.268Z,5.68
2023-03-13T16:16:29.478Z,6.17
2023-03-13T16:17:32.234Z,6.73
2023-03-13T16:18:34.618Z,5.95
2023-03-13T16:19:37.029Z,5.80
2023-03-13T16:20:39.411Z,5.53
2023-03-13T16:21:45.460Z,4.18
2023-03-13T16:22:47.939Z,4.93
2023-03-13T16:23:50.413Z,5.05
2023-03-13T16:24:52.770Z,6.47
2023-03-13T16:25:55.074Z,6.87
2023-03-13T16:26:57.404Z,6.38
2023-03-13T16:27:59.950Z,7.45
2023-03-13T16:29:02.550Z,8.95
2023-03-13T16:30:18.140Z,8.82
2023-03-13T16:31:41.458Z,8.27
2023-03-13T16:32:44.360Z,6.40
2023-03-13T16:34:08.098Z,5.60
2023-03-13T16:35:10.521Z,4.30
2023-03-13T16:36:25.166Z,4.65
2023-03-13T16:37:27.574Z,12.70
2023-03-13T16:38:29.953Z,9.28
2023-03-13T16:39:32.290Z,9.00
2023-03-13T16:40:35.613Z,14.73
2023-03-13T16:41:38.107Z,8.13
2023-03-13T16:42:40.493Z,10.72
2023-03-13T16:43:43.681Z,7.87
2023-03-13T16:44:46.083Z,7.57
2023-03-13T16:45:48.501Z,6.85
2023-03-13T16:47:04.756Z,3.82
2023-03-13T16:48:16.881Z,3.60
2023-03-13T16:49:19.254Z,4.45
2023-03-13T16:50:26.161Z,4.72
2023-03-13T16:51:29.034Z,4.37
2023-03-13T16:52:31.393Z,7.90
2023-03-13T16:53:33.776Z,19.15
2023-03-13T16:54:36.134Z,18.33
2023-03-13T16:55:38.539Z,13.10
2023-03-13T16:56:43.339Z,8.42
2023-03-13T16:57:46.133Z,6.65
2023-03-13T16:58:48.488Z,5.85
2023-03-13T16:59:51.570Z,6.20
2023-03-13T17:01:05.017Z,5.97
2023-03-13T17:02:15.811Z,5.67
2023-03-13T17:03:18.235Z,4.75
2023-03-13T17:04:20.708Z,5.00
2023-03-13T17:05:24.178Z,5.45
2023-03-13T17:06:47.893Z,6.40
2023-03-13T17:07:51.589Z,8.22
2023-03-13T17:08:54.480Z,9.53
2023-03-13T17:09:56.839Z,10.55
2023-03-13T17:10:59.446Z,12.77
2023-03-13T17:12:01.836Z,13.03
2023-03-13T17:13:05.580Z,19.08
2023-03-13T17:14:08.142Z,29.57
2023-03-13T17:15:10.978Z,27.78
2023-03-13T17:16:25.067Z,23.92
2023-03-13T17:17:27.744Z,33.42
2023-03-13T17:18:31.011Z,38.40